sensor_id;sensor_type;location;lat;lon;timestamp;pressure;altitude;pressure_sealevel;temperature;humidity
62942;BME280;49042;47.318;19.874;2022-12-20T00:01:27;102336.56;;;-5.26;100.00
62942;BME280;49042;47.318;19.874;2022-12-20T00:04:29;102332.34;;;-5.32;100.00
62942;BME280;49042;47.318;19.874;2022-12-20T00:07:31;102322.06;;;-5.27;100.00
62942;BME280;49042;47.318;19.874;2022-12-20T00:10:40;102325.09;;;-5.29;100.00
62942;BME280;49042;47.318;19.874;2022-12-20T00:13:45;102324.72;;;-5.32;100.00
62942;BME280;49042;47.318;19.874;2022-12-20T00:16:46;102332.34;;;-5.32;100.00
62942;BME280;49042;47.318;19.874;2022-12-20T00:19:48;102339.72;;;-5.21;100.00
62942;BME280;49042;47.318;19.874;2022-12-20T00:22:50;102344.78;;;-5.21;100.00
62942;BME280;49042;47.318;19.874;2022-12-20T00:25:51;102347.72;;;-5.18;100.00
62942;BME280;49042;47.318;19.874;2022-12-20T00:28:54;102352.53;;;-5.06;100.00
62942;BME280;49042;47.318;19.874;2022-12-20T00:31:56;102345.88;;;-4.98;100.00
62942;BME280;49042;47.318;19.874;2022-12-20T00:34:58;102349.78;;;-5.08;100.00
62942;BME280;49042;47.318;19.874;2022-12-20T00:37:59;102359.63;;;-5.03;100.00
62942;BME280;49042;47.318;19.874;2022-12-20T00:41:12;102369.22;;;-5.08;100.00
62942;BME280;49042;47.318;19.874;2022-12-20T00:44:14;102364.12;;;-5.08;100.00
62942;BME280;49042;47.318;19.874;2022-12-20T00:47:16;102362.34;;;-5.30;100.00
62942;BME280;49042;47.318;19.874;2022-12-20T00:50:18;102359.00;;;-5.16;100.00
62942;BME280;49042;47.318;19.874;2022-12-20T00:53:19;102359.41;;;-5.12;100.00
62942;BME280;49042;47.318;19.874;2022-12-20T00:56:26;102351.13;;;-4.97;100.00
62942;BME280;49042;47.318;19.874;2022-12-20T00:59:28;102342.37;;;-5.06;100.00
62942;BME280;49042;47.318;19.874;2022-12-20T01:02:30;102335.81;;;-5.04;100.00
62942;BME280;49042;47.318;19.874;2022-12-20T01:05:32;102320.16;;;-5.07;100.00
62942;BME280;49042;47.318;19.874;2022-12-20T01:08:34;102315.50;;;-4.97;100.00
62942;BME280;49042;47.318;19.874;2022-12-20T01:11:37;102306.84;;;-5.12;100.00
62942;BME280;49042;47.318;19.874;2022-12-20T01:14:39;102311.13;;;-4.98;100.00
62942;BME280;49042;47.318;19.874;2022-12-20T01:17:41;102320.63;;;-4.89;100.00
62942;BME280;49042;47.318;19.874;2022-12-20T01:20:42;102309.41;;;-4.77;100.00
62942;BME280;49042;47.318;19.874;2022-12-20T01:23:44;102301.81;;;-4.69;100.00
62942;BME280;49042;47.318;19.874;2022-12-20T01:26:46;102293.97;;;-4.78;100.00
62942;BME280;49042;47.318;19.874;2022-12-20T01:29:48;102295.94;;;-4.83;100.00
62942;BME280;49042;47.318;19.874;2022-12-20T01:32:50;102292.50;;;-4.76;100.00
62942;BME280;49042;47.318;19.874;2022-12-20T01:35:59;102284.37;;;-4.66;100.00
62942;BME280;49042;47.318;19.874;2022-12-20T01:39:07;102273.13;;;-4.61;100.00
62942;BME280;49042;47.318;19.874;2022-12-20T01:42:13;102284.03;;;-4.62;100.00
62942;BME280;49042;47.318;19.874;2022-12-20T01:45:24;102273.38;;;-4.37;100.00
62942;BME280;49042;47.318;19.874;2022-12-20T01:48:27;102270.03;;;-4.58;100.00
62942;BME280;49042;47.318;19.874;2022-12-20T01:51:31;102270.28;;;-4.42;100.00
62942;BME280;49042;47.318;19.874;2022-12-20T01:54:39;102269.41;;;-4.35;100.00
62942;BME280;49042;47.318;19.874;2022-12-20T01:57:46;102265.78;;;-4.23;100.00
62942;BME280;49042;47.318;19.874;2022-12-20T02:00:48;102266.88;;;-4.21;100.00
62942;BME280;49042;47.318;19.874;2022-12-20T02:03:51;102260.53;;;-4.17;100.00
62942;BME280;49042;47.318;19.874;2022-12-20T02:06:54;102244.84;;;-4.13;100.00
62942;BME280;49042;47.318;19.874;2022-12-20T02:09:57;102259.06;;;-4.15;100.00
62942;BME280;49042;47.318;19.874;2022-12-20T02:13:07;102254.88;;;-4.07;100.00
62942;BME280;49042;47.318;19.874;2022-12-20T02:16:20;102253.44;;;-3.98;100.00
62942;BME280;49042;47.318;19.874;2022-12-20T02:30:15;102224.09;;;-4.09;100.00
62942;BME280;49042;47.318;19.874;2022-12-20T02:33:20;102224.66;;;-4.04;100.00
62942;BME280;49042;47.318;19.874;2022-12-20T02:36:22;102218.28;;;-4.15;100.00
62942;BME280;49042;47.318;19.874;2022-12-20T02:39:27;102209.91;;;-4.21;100.00
62942;BME280;49042;47.318;19.874;2022-12-20T02:42:31;102212.09;;;-4.17;100.00
62942;BME280;49042;47.318;19.874;2022-12-20T02:45:34;102202.41;;;-4.27;100.00
62942;BME280;49042;47.318;19.874;2022-12-20T02:48:39;102194.41;;;-4.30;100.00
62942;BME280;49042;47.318;19.874;2022-12-20T02:51:44;102198.25;;;-4.26;100.00
62942;BME280;49042;47.318;19.874;2022-12-20T02:54:47;102193.13;;;-4.26;100.00
62942;BME280;49042;47.318;19.874;2022-12-20T02:57:55;102186.97;;;-4.28;100.00
62942;BME280;49042;47.318;19.874;2022-12-20T03:01:05;102182.94;;;-4.19;100.00
62942;BME280;49042;47.318;19.874;2022-12-20T03:04:09;102182.94;;;-4.19;100.00
62942;BME280;49042;47.318;19.874;2022-12-20T03:07:12;102175.66;;;-4.16;100.00
62942;BME280;49042;47.318;19.874;2022-12-20T03:10:16;102185.69;;;-4.17;100.00
62942;BME280;49042;47.318;19.874;2022-12-20T03:13:18;102184.22;;;-4.15;100.00
62942;BME280;49042;47.318;19.874;2022-12-20T03:16:20;102190.41;;;-4.13;100.00
62942;BME280;49042;47.318;19.874;2022-12-20T03:19:23;102185.16;;;-4.07;100.00
62942;BME280;49042;47.318;19.874;2022-12-20T03:22:24;102178.94;;;-4.02;100.00
62942;BME280;49042;47.318;19.874;2022-12-20T03:25:26;102187.50;;;-3.94;100.00
62942;BME280;49042;47.318;19.874;2022-12-20T03:28:28;102183.13;;;-3.95;100.00
62942;BME280;49042;47.318;19.874;2022-12-20T03:31:30;102184.75;;;-3.81;100.00
62942;BME280;49042;47.318;19.874;2022-12-20T03:34:31;102191.88;;;-3.86;100.00
62942;BME280;49042;47.318;19.874;2022-12-20T03:37:33;102188.22;;;-3.81;100.00
62942;BME280;49042;47.318;19.874;2022-12-20T03:40:35;102193.31;;;-3.66;100.00
62942;BME280;49042;47.318;19.874;2022-12-20T03:43:36;102193.50;;;-3.72;100.00
62942;BME280;49042;47.318;19.874;2022-12-20T03:46:38;102192.22;;;-3.53;100.00
62942;BME280;49042;47.318;19.874;2022-12-20T03:49:40;102194.22;;;-3.66;100.00
62942;BME280;49042;47.318;19.874;2022-12-20T03:52:41;102186.56;;;-3.58;100.00
62942;BME280;49042;47.318;19.874;2022-12-20T03:55:43;102198.59;;;-3.50;100.00
62942;BME280;49042;47.318;19.874;2022-12-20T03:58:46;102197.44;;;-3.30;100.00
62942;BME280;49042;47.318;19.874;2022-12-20T04:01:47;102185.97;;;-3.34;100.00
62942;BME280;49042;47.318;19.874;2022-12-20T04:04:49;102173.59;;;-3.45;100.00
62942;BME280;49042;47.318;19.874;2022-12-20T04:07:51;102179.28;;;-3.55;100.00
62942;BME280;49042;47.318;19.874;2022-12-20T04:10:53;102169.97;;;-3.55;100.00
62942;BME280;49042;47.318;19.874;2022-12-20T04:14:13;102156.19;;;-3.71;100.00
62942;BME280;49042;47.318;19.874;2022-12-20T04:17:14;102149.41;;;-3.71;100.00
62942;BME280;49042;47.318;19.874;2022-12-20T04:20:16;102150.88;;;-3.73;100.00
62942;BME280;49042;47.318;19.874;2022-12-20T04:23:21;102148.34;;;-3.73;100.00
62942;BME280;49042;47.318;19.874;2022-12-20T04:26:23;102144.16;;;-3.72;100.00
62942;BME280;49042;47.318;19.874;2022-12-20T04:29:25;102131.41;;;-3.80;100.00
62942;BME280;49042;47.318;19.874;2022-12-20T04:32:27;102141.06;;;-3.84;100.00
62942;BME280;49042;47.318;19.874;2022-12-20T04:35:29;102146.34;;;-3.83;100.00
62942;BME280;49042;47.318;19.874;2022-12-20T04:38:30;102146.00;;;-3.86;100.00
62942;BME280;49042;47.318;19.874;2022-12-20T04:41:32;102148.34;;;-3.88;100.00
62942;BME280;49042;47.318;19.874;2022-12-20T04:44:33;102144.53;;;-3.91;100.00
62942;BME280;49042;47.318;19.874;2022-12-20T04:47:35;102145.44;;;-3.91;100.00
62942;BME280;49042;47.318;19.874;2022-12-20T04:50:38;102150.91;;;-3.95;100.00
62942;BME280;49042;47.318;19.874;2022-12-20T04:53:39;102151.66;;;-3.96;100.00
62942;BME280;49042;47.318;19.874;2022-12-20T04:56:50;102145.09;;;-4.01;100.00
62942;BME280;49042;47.318;19.874;2022-12-20T04:59:51;102148.75;;;-4.06;100.00
62942;BME280;49042;47.318;19.874;2022-12-20T05:02:53;102150.75;;;-4.04;100.00
62942;BME280;49042;47.318;19.874;2022-12-20T05:05:55;102151.81;;;-4.16;100.00
62942;BME280;49042;47.318;19.874;2022-12-20T05:08:57;102134.91;;;-4.16;100.00
62942;BME280;49042;47.318;19.874;2022-12-20T05:11:58;102130.34;;;-4.19;100.00
62942;BME280;49042;47.318;19.874;2022-12-20T05:15:00;102129.44;;;-4.26;100.00
62942;BME280;49042;47.318;19.874;2022-12-20T05:18:02;102132.69;;;-4.27;100.00
62942;BME280;49042;47.318;19.874;2022-12-20T05:21:04;102129.44;;;-4.41;100.00
62942;BME280;49042;47.318;19.874;2022-12-20T05:24:24;102130.69;;;-4.37;100.00
62942;BME280;49042;47.318;19.874;2022-12-20T05:27:45;102131.06;;;-4.42;100.00
62942;BME280;49042;47.318;19.874;2022-12-20T05:30:46;102121.25;;;-4.53;100.00
62942;BME280;49042;47.318;19.874;2022-12-20T05:33:48;102121.22;;;-4.60;100.00
62942;BME280;49042;47.318;19.874;2022-12-20T05:36:50;102126.34;;;-4.60;100.00
62942;BME280;49042;47.318;19.874;2022-12-20T05:39:51;102132.34;;;-4.53;100.00
62942;BME280;49042;47.318;19.874;2022-12-20T05:42:53;102133.62;;;-4.49;100.00
62942;BME280;49042;47.318;19.874;2022-12-20T05:45:55;102146.72;;;-4.46;100.00
62942;BME280;49042;47.318;19.874;2022-12-20T05:48:57;102146.53;;;-4.40;100.00
62942;BME280;49042;47.318;19.874;2022-12-20T05:52:00;102142.53;;;-4.31;100.00
62942;BME280;49042;47.318;19.874;2022-12-20T05:55:02;102140.34;;;-4.20;100.00
62942;BME280;49042;47.318;19.874;2022-12-20T05:58:05;102152.00;;;-4.22;100.00
62942;BME280;49042;47.318;19.874;2022-12-20T06:01:07;102139.81;;;-4.17;100.00
62942;BME280;49042;47.318;19.874;2022-12-20T06:04:10;102130.00;;;-4.14;100.00
62942;BME280;49042;47.318;19.874;2022-12-20T06:07:12;102129.44;;;-4.04;100.00
62942;BME280;49042;47.318;19.874;2022-12-20T06:10:14;102138.50;;;-3.92;100.00
62942;BME280;49042;47.318;19.874;2022-12-20T06:13:16;102135.22;;;-3.76;100.00
62942;BME280;49042;47.318;19.874;2022-12-20T06:16:18;102134.53;;;-3.90;100.00
62942;BME280;49042;47.318;19.874;2022-12-20T06:19:21;102132.31;;;-3.79;100.00
62942;BME280;49042;47.318;19.874;2022-12-20T06:22:22;102137.75;;;-3.61;100.00
62942;BME280;49042;47.318;19.874;2022-12-20T06:25:24;102138.09;;;-3.58;100.00
62942;BME280;49042;47.318;19.874;2022-12-20T06:28:26;102144.50;;;-3.62;100.00
62942;BME280;49042;47.318;19.874;2022-12-20T06:31:27;102141.94;;;-3.69;100.00
62942;BME280;49042;47.318;19.874;2022-12-20T06:34:30;102149.94;;;-3.59;100.00
62942;BME280;49042;47.318;19.874;2022-12-20T06:37:32;102151.94;;;-3.56;100.00
62942;BME280;49042;47.318;19.874;2022-12-20T06:40:34;102152.47;;;-3.51;100.00
62942;BME280;49042;47.318;19.874;2022-12-20T06:43:35;102157.00;;;-3.41;100.00
62942;BME280;49042;47.318;19.874;2022-12-20T06:46:37;102147.38;;;-3.51;100.00
62942;BME280;49042;47.318;19.874;2022-12-20T06:49:39;102138.44;;;-3.48;100.00
62942;BME280;49042;47.318;19.874;2022-12-20T06:52:40;102135.16;;;-3.47;100.00
62942;BME280;49042;47.318;19.874;2022-12-20T06:55:46;102124.94;;;-3.39;100.00
62942;BME280;49042;47.318;19.874;2022-12-20T06:58:48;102128.91;;;-3.34;100.00
62942;BME280;49042;47.318;19.874;2022-12-20T07:01:49;102133.44;;;-3.31;100.00
62942;BME280;49042;47.318;19.874;2022-12-20T07:04:51;102135.97;;;-3.24;100.00
62942;BME280;49042;47.318;19.874;2022-12-20T07:07:53;102125.41;;;-3.27;100.00
62942;BME280;49042;47.318;19.874;2022-12-20T07:10:55;102111.03;;;-3.34;100.00
62942;BME280;49042;47.318;19.874;2022-12-20T07:13:57;102112.56;;;-3.44;100.00
62942;BME280;49042;47.318;19.874;2022-12-20T07:16:59;102108.66;;;-3.25;100.00
62942;BME280;49042;47.318;19.874;2022-12-20T07:20:01;102102.84;;;-3.39;100.00
62942;BME280;49042;47.318;19.874;2022-12-20T07:23:11;102088.31;;;-3.47;100.00
62942;BME280;49042;47.318;19.874;2022-12-20T07:26:13;102090.53;;;-3.50;100.00
62942;BME280;49042;47.318;19.874;2022-12-20T07:29:15;102086.84;;;-3.45;100.00
62942;BME280;49042;47.318;19.874;2022-12-20T07:32:17;102088.81;;;-3.35;100.00
62942;BME280;49042;47.318;19.874;2022-12-20T07:35:19;102078.19;;;-3.24;100.00
62942;BME280;49042;47.318;19.874;2022-12-20T07:38:20;102072.00;;;-3.26;100.00
62942;BME280;49042;47.318;19.874;2022-12-20T07:41:22;102075.91;;;-3.06;100.00
62942;BME280;49042;47.318;19.874;2022-12-20T07:44:25;102063.00;;;-2.84;100.00
62942;BME280;49042;47.318;19.874;2022-12-20T07:47:27;102065.28;;;-2.71;100.00
62942;BME280;49042;47.318;19.874;2022-12-20T07:50:30;102068.47;;;-2.57;100.00
62942;BME280;49042;47.318;19.874;2022-12-20T07:53:37;102069.88;;;-2.52;100.00
62942;BME280;49042;47.318;19.874;2022-12-20T07:56:44;102063.75;;;-2.38;100.00
62942;BME280;49042;47.318;19.874;2022-12-20T07:59:51;102058.59;;;-2.14;100.00
62942;BME280;49042;47.318;19.874;2022-12-20T08:03:00;102055.31;;;-1.97;100.00
62942;BME280;49042;47.318;19.874;2022-12-20T08:06:06;102044.50;;;-1.78;100.00
62942;BME280;49042;47.318;19.874;2022-12-20T08:09:10;102046.56;;;-1.50;100.00
62942;BME280;49042;47.318;19.874;2022-12-20T08:12:16;102061.22;;;-1.24;100.00
62942;BME280;49042;47.318;19.874;2022-12-20T08:15:18;102066.78;;;-1.03;100.00
62942;BME280;49042;47.318;19.874;2022-12-20T08:18:22;102067.22;;;-0.82;100.00
62942;BME280;49042;47.318;19.874;2022-12-20T08:21:25;102061.88;;;-0.67;100.00
62942;BME280;49042;47.318;19.874;2022-12-20T08:24:26;102062.72;;;-0.41;99.93
62942;BME280;49042;47.318;19.874;2022-12-20T08:27:28;102046.09;;;-0.54;99.88
62942;BME280;49042;47.318;19.874;2022-12-20T08:30:30;102044.50;;;-0.95;100.00
62942;BME280;49042;47.318;19.874;2022-12-20T08:33:33;102045.84;;;-0.99;100.00
62942;BME280;49042;47.318;19.874;2022-12-20T08:36:35;102045.06;;;-1.48;100.00
62942;BME280;49042;47.318;19.874;2022-12-20T08:39:37;102041.53;;;-1.57;100.00
62942;BME280;49042;47.318;19.874;2022-12-20T08:42:39;102045.50;;;-1.52;100.00
62942;BME280;49042;47.318;19.874;2022-12-20T08:45:41;102045.72;;;-1.42;100.00
62942;BME280;49042;47.318;19.874;2022-12-20T08:48:42;102048.19;;;-1.34;100.00
62942;BME280;49042;47.318;19.874;2022-12-20T08:51:44;102046.69;;;-1.32;100.00
62942;BME280;49042;47.318;19.874;2022-12-20T08:54:46;102051.88;;;-1.23;100.00
62942;BME280;49042;47.318;19.874;2022-12-20T08:57:48;102060.84;;;-1.11;100.00
62942;BME280;49042;47.318;19.874;2022-12-20T09:00:49;102059.31;;;-0.92;100.00
62942;BME280;49042;47.318;19.874;2022-12-20T09:03:51;102069.88;;;-0.89;100.00
62942;BME280;49042;47.318;19.874;2022-12-20T09:06:53;102063.56;;;-0.84;100.00
62942;BME280;49042;47.318;19.874;2022-12-20T09:09:55;102053.87;;;-0.95;100.00
62942;BME280;49042;47.318;19.874;2022-12-20T09:12:56;102040.25;;;-0.78;100.00
62942;BME280;49042;47.318;19.874;2022-12-20T09:16:03;102033.59;;;-0.85;100.00
62942;BME280;49042;47.318;19.874;2022-12-20T09:19:05;102022.06;;;-0.63;100.00
62942;BME280;49042;47.318;19.874;2022-12-20T09:22:27;102013.19;;;-0.67;100.00
62942;BME280;49042;47.318;19.874;2022-12-20T09:25:29;102001.62;;;-0.89;100.00
62942;BME280;49042;47.318;19.874;2022-12-20T09:28:31;102001.22;;;-0.76;100.00
62942;BME280;49042;47.318;19.874;2022-12-20T09:31:33;101995.38;;;-0.66;100.00
62942;BME280;49042;47.318;19.874;2022-12-20T09:34:35;101985.22;;;-0.21;100.00
62942;BME280;49042;47.318;19.874;2022-12-20T09:37:37;101978.53;;;-0.46;96.71
62942;BME280;49042;47.318;19.874;2022-12-20T09:40:46;101994.56;;;-0.39;93.19
62942;BME280;49042;47.318;19.874;2022-12-20T09:43:49;101989.16;;;-0.25;93.83
62942;BME280;49042;47.318;19.874;2022-12-20T09:47:18;101988.12;;;-0.18;97.95
62942;BME280;49042;47.318;19.874;2022-12-20T09:50:34;101988.91;;;-0.53;99.28
62942;BME280;49042;47.318;19.874;2022-12-20T09:57:26;101985.91;;;-0.58;99.10
62942;BME280;49042;47.318;19.874;2022-12-20T10:00:19;101979.69;;;-0.60;99.96
62942;BME280;49042;47.318;19.874;2022-12-20T10:03:26;101982.34;;;-0.85;100.00
62942;BME280;49042;47.318;19.874;2022-12-20T10:07:28;101992.97;;;-0.98;100.00
62942;BME280;49042;47.318;19.874;2022-12-20T10:25:55;101953.53;;;-0.39;100.00
62942;BME280;49042;47.318;19.874;2022-12-20T10:28:58;101944.63;;;-0.43;100.00
62942;BME280;49042;47.318;19.874;2022-12-20T10:31:59;101946.06;;;-0.63;100.00
62942;BME280;49042;47.318;19.874;2022-12-20T10:38:11;101940.88;;;-0.47;99.84
62942;BME280;49042;47.318;19.874;2022-12-20T10:41:17;101925.81;;;-0.26;100.00
62942;BME280;49042;47.318;19.874;2022-12-20T10:44:25;101921.87;;;-0.40;100.00
62942;BME280;49042;47.318;19.874;2022-12-20T10:47:36;101926.34;;;-0.55;100.00
62942;BME280;49042;47.318;19.874;2022-12-20T10:50:39;101905.91;;;-0.19;99.81
62942;BME280;49042;47.318;19.874;2022-12-20T10:53:58;101901.09;;;-0.07;99.35
62942;BME280;49042;47.318;19.874;2022-12-20T10:57:25;101903.59;;;0.37;97.93
62942;BME280;49042;47.318;19.874;2022-12-20T11:00:29;101902.56;;;0.08;97.34
62942;BME280;49042;47.318;19.874;2022-12-20T11:03:31;101893.06;;;-0.02;98.81
62942;BME280;49042;47.318;19.874;2022-12-20T11:09:52;101879.66;;;-0.08;97.88
62942;BME280;49042;47.318;19.874;2022-12-20T11:12:57;101868.94;;;-0.30;99.40
62942;BME280;49042;47.318;19.874;2022-12-20T11:15:59;101867.41;;;-0.37;99.44
62942;BME280;49042;47.318;19.874;2022-12-20T11:19:14;101860.19;;;-0.50;99.29
62942;BME280;49042;47.318;19.874;2022-12-20T11:22:31;101854.44;;;-0.30;99.50
62942;BME280;49042;47.318;19.874;2022-12-20T11:29:20;101840.25;;;-0.17;100.00
62942;BME280;49042;47.318;19.874;2022-12-20T11:38:42;101826.37;;;0.82;100.00
62942;BME280;49042;47.318;19.874;2022-12-20T11:55:32;101821.03;;;0.61;89.92
62942;BME280;49042;47.318;19.874;2022-12-20T11:58:55;101810.88;;;0.34;93.07
62942;BME280;49042;47.318;19.874;2022-12-20T12:02:10;101795.72;;;0.55;93.10
62942;BME280;49042;47.318;19.874;2022-12-20T12:05:27;101801.28;;;0.14;94.62
62942;BME280;49042;47.318;19.874;2022-12-20T12:08:37;101791.00;;;0.23;98.12
62942;BME280;49042;47.318;19.874;2022-12-20T12:11:52;101791.78;;;0.04;97.98
62942;BME280;49042;47.318;19.874;2022-12-20T12:18:23;101785.44;;;0.09;95.54
62942;BME280;49042;47.318;19.874;2022-12-20T12:21:30;101790.16;;;-0.14;97.29
62942;BME280;49042;47.318;19.874;2022-12-20T12:24:37;101787.00;;;-0.11;97.99
62942;BME280;49042;47.318;19.874;2022-12-20T12:27:43;101790.75;;;0.10;97.27
62942;BME280;49042;47.318;19.874;2022-12-20T12:30:53;101793.31;;;0.10;95.58
62942;BME280;49042;47.318;19.874;2022-12-20T12:41:00;101777.13;;;0.12;97.18
62942;BME280;49042;47.318;19.874;2022-12-20T12:47:54;101766.13;;;0.13;97.72
62942;BME280;49042;47.318;19.874;2022-12-20T12:50:57;101767.59;;;0.19;97.24
62942;BME280;49042;47.318;19.874;2022-12-20T12:54:21;101766.81;;;0.29;96.74
62942;BME280;49042;47.318;19.874;2022-12-20T12:57:24;101767.78;;;0.21;94.33
62942;BME280;49042;47.318;19.874;2022-12-20T13:00:52;101764.59;;;0.24;94.36
62942;BME280;49042;47.318;19.874;2022-12-20T13:07:02;101763.94;;;0.35;94.24
62942;BME280;49042;47.318;19.874;2022-12-20T13:13:22;101753.22;;;0.30;94.19
62942;BME280;49042;47.318;19.874;2022-12-20T13:16:27;101757.00;;;0.25;94.49
62942;BME280;49042;47.318;19.874;2022-12-20T13:19:51;101764.06;;;-0.01;96.01
62942;BME280;49042;47.318;19.874;2022-12-20T13:26:48;101764.97;;;0.00;95.93
62942;BME280;49042;47.318;19.874;2022-12-20T13:36:35;101753.78;;;-0.01;98.97
62942;BME280;49042;47.318;19.874;2022-12-20T13:39:38;101747.59;;;-0.03;99.12
62942;BME280;49042;47.318;19.874;2022-12-20T13:42:41;101761.19;;;-0.04;98.99
62942;BME280;49042;47.318;19.874;2022-12-20T13:45:49;101744.72;;;0.03;98.60
62942;BME280;49042;47.318;19.874;2022-12-20T13:48:55;101751.34;;;0.01;99.67
62942;BME280;49042;47.318;19.874;2022-12-20T13:52:20;101742.16;;;0.03;99.93
62942;BME280;49042;47.318;19.874;2022-12-20T13:55:37;101741.38;;;0.04;98.67
62942;BME280;49042;47.318;19.874;2022-12-20T13:58:41;101729.97;;;-0.08;99.62
62942;BME280;49042;47.318;19.874;2022-12-20T14:01:51;101728.56;;;0.04;99.94
62942;BME280;49042;47.318;19.874;2022-12-20T14:05:06;101706.12;;;-0.07;100.00
62942;BME280;49042;47.318;19.874;2022-12-20T14:08:20;101699.81;;;-0.20;100.00
62942;BME280;49042;47.318;19.874;2022-12-20T14:11:25;101693.91;;;-0.10;100.00
62942;BME280;49042;47.318;19.874;2022-12-20T14:14:30;101692.88;;;-0.21;100.00
62942;BME280;49042;47.318;19.874;2022-12-20T14:17:32;101689.28;;;-0.23;100.00
62942;BME280;49042;47.318;19.874;2022-12-20T14:20:35;101693.94;;;-0.28;100.00
62942;BME280;49042;47.318;19.874;2022-12-20T14:23:43;101696.22;;;-0.22;100.00
62942;BME280;49042;47.318;19.874;2022-12-20T14:26:50;101700.44;;;-0.23;100.00
62942;BME280;49042;47.318;19.874;2022-12-20T14:29:53;101677.06;;;-0.35;100.00
62942;BME280;49042;47.318;19.874;2022-12-20T14:32:55;101662.81;;;-0.50;100.00
62942;BME280;49042;47.318;19.874;2022-12-20T14:36:06;101670.94;;;-0.55;100.00
62942;BME280;49042;47.318;19.874;2022-12-20T14:39:30;101671.41;;;-0.59;100.00
62942;BME280;49042;47.318;19.874;2022-12-20T14:42:34;101662.97;;;-0.67;100.00
62942;BME280;49042;47.318;19.874;2022-12-20T14:45:36;101658.91;;;-0.73;100.00
62942;BME280;49042;47.318;19.874;2022-12-20T14:48:39;101662.69;;;-0.79;100.00
62942;BME280;49042;47.318;19.874;2022-12-20T14:51:40;101659.56;;;-0.85;100.00
62942;BME280;49042;47.318;19.874;2022-12-20T14:58:29;101640.09;;;-0.92;100.00
62942;BME280;49042;47.318;19.874;2022-12-20T15:01:31;101636.19;;;-1.06;100.00
62942;BME280;49042;47.318;19.874;2022-12-20T15:04:40;101636.34;;;-1.04;100.00
62942;BME280;49042;47.318;19.874;2022-12-20T15:07:41;101641.91;;;-1.09;100.00
62942;BME280;49042;47.318;19.874;2022-12-20T15:10:53;101648.41;;;-1.03;100.00
62942;BME280;49042;47.318;19.874;2022-12-20T15:13:56;101640.13;;;-1.10;100.00
62942;BME280;49042;47.318;19.874;2022-12-20T15:16:59;101642.53;;;-1.11;100.00
62942;BME280;49042;47.318;19.874;2022-12-20T15:20:01;101633.31;;;-1.09;100.00
62942;BME280;49042;47.318;19.874;2022-12-20T15:23:02;101631.53;;;-1.01;100.00
62942;BME280;49042;47.318;19.874;2022-12-20T15:26:04;101628.34;;;-1.16;100.00
62942;BME280;49042;47.318;19.874;2022-12-20T15:29:09;101623.25;;;-1.25;100.00
62942;BME280;49042;47.318;19.874;2022-12-20T15:32:33;101615.56;;;-1.25;100.00
62942;BME280;49042;47.318;19.874;2022-12-20T15:35:35;101612.09;;;-1.17;100.00
62942;BME280;49042;47.318;19.874;2022-12-20T15:38:37;101615.88;;;-1.31;100.00
62942;BME280;49042;47.318;19.874;2022-12-20T15:42:00;101615.09;;;-1.30;100.00
62942;BME280;49042;47.318;19.874;2022-12-20T15:45:04;101614.06;;;-1.32;100.00
62942;BME280;49042;47.318;19.874;2022-12-20T15:48:12;101624.13;;;-1.34;100.00
62942;BME280;49042;47.318;19.874;2022-12-20T15:51:27;101612.69;;;-1.37;100.00
62942;BME280;49042;47.318;19.874;2022-12-20T15:54:35;101616.31;;;-1.26;100.00
62942;BME280;49042;47.318;19.874;2022-12-20T15:57:37;101617.38;;;-1.42;100.00
62942;BME280;49042;47.318;19.874;2022-12-20T16:00:39;101632.09;;;-1.31;100.00
62942;BME280;49042;47.318;19.874;2022-12-20T16:03:42;101639.81;;;-1.40;100.00
62942;BME280;49042;47.318;19.874;2022-12-20T16:06:45;101631.69;;;-1.35;100.00
62942;BME280;49042;47.318;19.874;2022-12-20T16:09:48;101629.69;;;-1.47;100.00
62942;BME280;49042;47.318;19.874;2022-12-20T16:12:49;101627.44;;;-1.44;100.00
62942;BME280;49042;47.318;19.874;2022-12-20T16:15:51;101633.94;;;-1.30;100.00
62942;BME280;49042;47.318;19.874;2022-12-20T16:18:54;101630.31;;;-1.32;100.00
62942;BME280;49042;47.318;19.874;2022-12-20T16:21:56;101631.78;;;-1.52;100.00
62942;BME280;49042;47.318;19.874;2022-12-20T16:24:58;101648.53;;;-1.46;100.00
62942;BME280;49042;47.318;19.874;2022-12-20T16:28:00;101652.44;;;-1.23;100.00
62942;BME280;49042;47.318;19.874;2022-12-20T16:31:09;101653.19;;;-1.33;100.00
62942;BME280;49042;47.318;19.874;2022-12-20T16:34:14;101650.19;;;-1.47;100.00
62942;BME280;49042;47.318;19.874;2022-12-20T16:37:16;101655.94;;;-1.32;100.00
62942;BME280;49042;47.318;19.874;2022-12-20T16:40:18;101643.53;;;-1.45;100.00
62942;BME280;49042;47.318;19.874;2022-12-20T16:43:20;101646.84;;;-1.55;100.00
62942;BME280;49042;47.318;19.874;2022-12-20T16:46:23;101652.00;;;-1.46;100.00
62942;BME280;49042;47.318;19.874;2022-12-20T16:49:27;101648.53;;;-1.46;100.00
62942;BME280;49042;47.318;19.874;2022-12-20T16:52:29;101650.03;;;-1.48;100.00
62942;BME280;49042;47.318;19.874;2022-12-20T16:55:31;101656.50;;;-1.43;100.00
62942;BME280;49042;47.318;19.874;2022-12-20T16:58:40;101643.56;;;-1.27;100.00
62942;BME280;49042;47.318;19.874;2022-12-20T17:02:11;101643.87;;;-1.42;100.00
62942;BME280;49042;47.318;19.874;2022-12-20T17:08:22;101639.63;;;-1.41;100.00
62942;BME280;49042;47.318;19.874;2022-12-20T17:11:41;101636.31;;;-1.58;100.00
62942;BME280;49042;47.318;19.874;2022-12-20T17:14:43;101633.31;;;-1.63;100.00
62942;BME280;49042;47.318;19.874;2022-12-20T17:17:45;101631.50;;;-1.64;100.00
62942;BME280;49042;47.318;19.874;2022-12-20T17:20:47;101616.59;;;-1.41;100.00
62942;BME280;49042;47.318;19.874;2022-12-20T17:23:50;101617.03;;;-1.54;100.00